Time;durP1;ratioP1;P1;durP2;ratioP2;P2;SDS_P1;SDS_P2;PMS_P1;PMS_P2;Temp;Humidity;BMP_temperature;BMP_pressure;BME280_temperature;BME280_humidity;BME280_pressure;Samples;Min_cycle;Max_cycle;Signal;HPM_P1;HPM_P2
2023/05/10 00:00:22;;;;;;;10.40;5.20;;;;;;;9.55;43.32;100900.31;111152;1211;97687;-60
2023/05/10 00:02:48;;;;;;;9.40;4.70;;;;;;;9.52;43.46;100895.23;111038;1206;138004;-62
2023/05/10 00:05:13;;;;;;;12.20;5.20;;;;;;;9.50;43.47;100895.84;111173;1211;99041;-60
2023/05/10 00:07:39;;;;;;;8.50;4.60;;;;;;;9.46;43.59;100886.01;111131;1211;139550;-60
2023/05/10 00:10:04;;;;;;;10.20;4.70;;;;;;;9.43;43.64;100887.33;111233;1206;98945;-60
2023/05/10 00:12:30;;;;;;;8.60;5.00;;;;;;;9.40;43.71;100884.60;111142;1211;100056;-60
2023/05/10 00:14:55;;;;;;;13.50;5.20;;;;;;;9.37;43.81;100883.83;111049;1206;137840;-60
2023/05/10 00:17:20;;;;;;;8.00;4.50;;;;;;;9.34;43.86;100879.80;111251;1206;99040;-60
2023/05/10 00:19:45;;;;;;;7.70;4.20;;;;;;;9.31;43.89;100878.30;111058;1211;139257;-60
2023/05/10 00:22:11;;;;;;;9.90;5.20;;;;;;;9.29;44.09;100873.39;111207;1211;97888;-60
2023/05/10 00:24:36;;;;;;;12.70;5.00;;;;;;;9.27;44.09;100874.72;111143;1211;99043;-60
2023/05/10 00:27:03;;;;;;;11.40;5.00;;;;;;;9.24;44.25;100868.41;111099;1211;138601;-60
2023/05/10 00:29:29;;;;;;;13.80;5.00;;;;;;;9.21;44.27;100866.00;111238;1206;99988;-60
2023/05/10 00:31:54;;;;;;;8.90;4.40;;;;;;;9.19;44.22;100864.66;111004;1206;139796;-60
2023/05/10 00:34:19;;;;;;;10.50;4.90;;;;;;;9.16;44.33;100861.02;111173;1211;99005;-60
2023/05/10 00:36:45;;;;;;;8.80;4.50;;;;;;;9.12;44.46;100858.46;111197;1206;98116;-60
2023/05/10 00:39:10;;;;;;;7.20;4.50;;;;;;;9.08;44.39;100857.33;111127;1211;138495;-60
2023/05/10 00:41:35;;;;;;;10.30;4.50;;;;;;;9.06;44.61;100855.81;111224;1206;99017;-60
2023/05/10 00:44:01;;;;;;;9.50;4.70;;;;;;;9.03;44.63;100854.13;111045;1209;139389;-60
2023/05/10 00:46:27;;;;;;;11.70;4.50;;;;;;;9.01;44.67;100852.44;111286;1211;99025;-60
2023/05/10 00:48:53;;;;;;;10.20;5.70;;;;;;;8.98;44.73;100854.67;111157;1207;107987;-61
2023/05/10 00:51:19;;;;;;;15.00;4.70;;;;;;;8.94;44.84;100854.09;110975;1212;139169;-60
2023/05/10 00:53:45;;;;;;;10.40;4.30;;;;;;;8.90;44.97;100850.83;111291;1206;99034;-60
2023/05/10 00:56:12;;;;;;;16.50;4.80;;;;;;;8.87;44.94;100849.14;111126;1211;138551;-60
2023/05/10 00:58:42;;;;;;;7.80;4.20;;;;;;;8.84;45.13;100845.70;111269;1206;99022;-60
2023/05/10 01:01:09;;;;;;;9.60;4.60;;;;;;;8.80;45.22;100849.37;111079;1210;97847;-60
2023/05/10 01:03:35;;;;;;;7.00;4.10;;;;;;;8.77;45.17;100845.54;111273;1206;137965;-60
2023/05/10 01:06:01;;;;;;;7.70;4.70;;;;;;;8.73;45.31;100843.71;111166;1206;99024;-59
2023/05/10 01:08:27;;;;;;;9.20;4.70;;;;;;;8.71;45.36;100846.11;111262;1207;139301;-62
2023/05/10 01:10:53;;;;;;;8.60;4.60;;;;;;;8.68;45.59;100846.04;111199;1211;99629;-61
2023/05/10 01:13:32;;;;;;;14.20;4.80;;;;;;;8.65;45.65;100843.27;111203;1206;98933;-60
2023/05/10 01:16:01;;;;;;;12.10;4.40;;;;;;;8.62;45.65;100840.52;111164;1211;112328;-61
2023/05/10 01:18:30;;;;;;;11.60;4.60;;;;;;;8.58;45.76;100839.04;111292;1211;99446;-60
2023/05/10 01:21:17;;;;;;;9.20;4.60;;;;;;;8.56;45.76;100838.56;111171;1206;138281;-60
2023/05/10 01:23:59;;;;;;;10.90;5.50;;;;;;;8.55;45.90;100839.15;111182;1206;99022;-60
2023/05/10 01:26:53;;;;;;;8.10;4.50;;;;;;;8.53;45.92;100836.90;111132;1212;138940;-60
2023/05/10 01:29:24;;;;;;;10.60;5.10;;;;;;;8.48;46.02;100832.77;111182;1206;112937;-59
2023/05/10 01:32:02;;;;;;;;;;;;;;;8.44;46.09;100835.05;111060;1210;140447;-60
2023/05/10 01:34:35;;;;;;;15.20;5.10;;;;;;;8.39;46.36;100834.12;111130;1207;108107;-60
2023/05/10 01:37:23;;;;;;;8.70;4.10;;;;;;;8.37;46.30;100833.84;111068;1211;98997;-60
2023/05/10 01:40:07;;;;;;;13.60;7.00;;;;;;;8.33;46.43;100833.77;111028;1206;139814;-60
2023/05/10 01:42:43;;;;;;;9.10;4.90;;;;;;;8.31;46.49;100832.04;111213;1212;113680;-61
2023/05/10 01:45:18;;;;;;;15.70;5.30;;;;;;;8.27;46.54;100832.69;111114;1212;139612;-61
2023/05/10 01:47:48;;;;;;;9.90;5.10;;;;;;;8.24;46.45;100829.39;111130;1206;108012;-61
2023/05/10 01:50:18;;;;;;;10.40;4.80;;;;;;;8.21;46.62;100829.31;111055;1206;138169;-60
2023/05/10 01:53:07;;;;;;;10.70;4.50;;;;;;;8.18;46.72;100827.45;111209;1206;97961;-60
2023/05/10 01:55:35;;;;;;;12.90;5.00;;;;;;;8.16;46.77;100830.90;111021;1206;138779;-61
2023/05/10 01:58:14;;;;;;;8.10;4.30;;;;;;;8.12;46.76;100825.66;111219;1206;100145;-61
2023/05/10 02:00:43;;;;;;;13.10;4.80;;;;;;;8.10;46.92;100825.92;111166;1206;109192;-61
2023/05/10 02:03:11;;;;;;;11.40;4.70;;;;;;;8.07;46.80;100826.17;111061;1220;140081;-61
2023/05/10 02:05:38;;;;;;;10.40;4.60;;;;;;;8.04;47.03;100822.16;111266;1209;98915;-60
2023/05/10 02:08:06;;;;;;;9.40;4.60;;;;;;;8.02;47.13;100820.83;111026;1206;139441;-61
2023/05/10 02:10:33;;;;;;;8.70;4.60;;;;;;;7.99;47.18;100821.44;111209;1212;99839;-60
2023/05/10 02:13:00;;;;;;;11.90;4.70;;;;;;;7.96;47.13;100819.58;111161;1206;99102;-60
2023/05/10 02:15:27;;;;;;;12.50;4.80;;;;;;;7.92;47.35;100819.33;111047;1212;137988;-61
2023/05/10 02:17:55;;;;;;;9.50;4.30;;;;;;;7.89;47.33;100813.57;111159;1206;97506;-60
2023/05/10 02:20:22;;;;;;;14.80;4.30;;;;;;;7.86;47.45;100816.13;111022;1206;137826;-60
2023/05/10 02:22:50;;;;;;;8.20;4.70;;;;;;;7.82;47.56;100812.50;111153;1212;99446;-60
2023/05/10 02:25:15;;;;;;;10.20;5.30;;;;;;;7.79;47.62;100812.27;111219;1206;98140;-61
2023/05/10 02:27:42;;;;;;;14.90;5.30;;;;;;;7.77;47.64;100810.39;111118;1211;137964;-60
2023/05/10 02:30:08;;;;;;;11.90;4.60;;;;;;;7.74;47.68;100809.58;111285;1210;96647;-61
2023/05/10 02:32:36;;;;;;;10.00;5.10;;;;;;;7.72;47.86;100810.37;111022;1206;137877;-61
2023/05/10 02:35:03;;;;;;;18.30;4.60;;;;;;;7.70;47.87;100814.34;111105;1212;108425;-60
2023/05/10 02:37:30;;;;;;;14.40;5.00;;;;;;;7.68;47.99;100811.71;111106;1206;138354;-60
2023/05/10 02:39:56;;;;;;;10.40;5.00;;;;;;;7.66;48.07;100813.02;111129;1212;98934;-60
2023/05/10 02:42:26;;;;;;;7.70;4.50;;;;;;;7.63;48.15;100814.88;111163;1206;99206;-60
2023/05/10 02:44:56;;;;;;;9.60;3.90;;;;;;;7.61;48.11;100813.01;110989;1206;138200;-61
2023/05/10 02:47:22;;;;;;;9.30;5.50;;;;;;;7.57;48.25;100811.16;111200;1212;108029;-61
2023/05/10 02:49:47;;;;;;;8.20;4.50;;;;;;;7.53;48.37;100812.67;111086;1206;139307;-61
2023/05/10 02:52:21;;;;;;;14.10;5.30;;;;;;;7.51;48.34;100811.86;111300;1212;99131;-60
2023/05/10 02:54:52;;;;;;;9.70;4.00;;;;;;;7.48;48.40;100813.72;111157;1211;99025;-60
2023/05/10 02:57:24;;;;;;;7.20;4.30;;;;;;;7.47;48.48;100811.61;111059;1206;139226;-60
2023/05/10 02:59:50;;;;;;;11.20;4.30;;;;;;;7.45;48.54;100813.63;111179;1206;98993;-61
2023/05/10 03:02:15;;;;;;;14.20;5.30;;;;;;;7.42;48.63;100807.29;111082;1212;140028;-61
2023/05/10 03:04:41;;;;;;;12.90;5.00;;;;;;;7.41;48.70;100806.80;111335;1212;99024;-60
2023/05/10 03:07:07;;;;;;;9.20;4.30;;;;;;;7.39;48.72;100807.55;111157;1206;98995;-60
2023/05/10 03:09:33;;;;;;;17.70;5.20;;;;;;;7.37;48.78;100800.52;111043;1206;138461;-60
2023/05/10 03:12:14;;;;;;;24.20;11.90;;;;;;;7.35;48.93;100796.48;111350;1211;99118;-60
2023/05/10 03:14:54;;;;;;;12.30;5.50;;;;;;;7.33;49.02;100800.42;111078;1206;139780;-60
2023/05/10 03:17:28;;;;;;;10.90;5.00;;;;;;;7.32;48.93;100800.83;111144;1206;108387;-61
2023/05/10 03:19:57;;;;;;;7.60;4.20;;;;;;;7.32;49.13;100801.55;111133;1206;138120;-60
2023/05/10 03:22:44;;;;;;;7.90;4.80;;;;;;;7.31;49.05;100799.96;111182;1211;98922;-60
2023/05/10 03:25:12;;;;;;;15.40;5.60;;;;;;;7.28;49.29;100795.95;110994;1206;113077;-60
2023/05/10 03:27:41;;;;;;;13.10;4.90;;;;;;;7.27;49.24;100793.49;111075;1206;139275;-60
2023/05/10 03:30:10;;;;;;;10.30;4.30;;;;;;;7.27;49.36;100794.20;111161;1211;107001;-60
2023/05/10 03:32:35;;;;;;;12.60;4.70;;;;;;;7.27;49.45;100793.67;111090;1212;138842;-60
2023/05/10 03:35:07;;;;;;;17.40;4.80;;;;;;;7.28;49.63;100794.00;111173;1210;99005;-61
2023/05/10 03:37:32;;;;;;;14.50;5.50;;;;;;;7.31;49.65;100791.43;111211;1206;138827;-62
2023/05/10 03:39:58;;;;;;;10.40;5.10;;;;;;;7.32;49.69;100790.33;111176;1206;100405;-61
2023/05/10 03:42:23;;;;;;;10.90;4.80;;;;;;;7.32;49.62;100792.82;111176;1212;98929;-61
2023/05/10 03:44:49;;;;;;;10.50;5.30;;;;;;;7.33;49.73;100795.10;111003;1211;137919;-60
2023/05/10 03:47:15;;;;;;;9.40;5.20;;;;;;;7.33;49.81;100795.98;111156;1212;99127;-60
2023/05/10 03:49:40;;;;;;;10.80;4.50;;;;;;;7.33;49.89;100797.77;111203;1212;139979;-61
2023/05/10 03:52:06;;;;;;;11.30;4.70;;;;;;;7.33;49.96;100796.71;111098;1206;98916;-61
2023/05/10 03:54:32;;;;;;;12.40;5.40;;;;;;;7.33;50.09;100800.81;111150;1206;98942;-61
2023/05/10 03:56:57;;;;;;;14.30;5.40;;;;;;;7.32;50.08;100799.75;111079;1212;138533;-60
2023/05/10 03:59:22;;;;;;;9.70;5.20;;;;;;;7.32;50.11;100800.48;111186;1206;97503;-60
2023/05/10 04:01:47;;;;;;;10.80;4.80;;;;;;;7.32;50.26;100798.69;111108;1206;137857;-61
2023/05/10 04:04:13;;;;;;;12.70;5.10;;;;;;;7.32;50.22;100796.38;111117;1212;98929;-61
2023/05/10 04:06:38;;;;;;;16.50;6.20;;;;;;;7.33;50.32;100800.09;111179;1206;99031;-62
2023/05/10 04:09:04;;;;;;;9.10;4.90;;;;;;;7.34;50.39;100795.45;111081;1206;137885;-60
2023/05/10 04:11:29;;;;;;;8.90;4.60;;;;;;;7.36;50.53;100796.63;111208;1212;98942;-60
2023/05/10 04:13:55;;;;;;;14.00;5.60;;;;;;;7.37;50.51;100796.23;111106;1206;138317;-60
2023/05/10 04:16:20;;;;;;;11.70;5.50;;;;;;;7.38;50.50;100796.39;111157;1211;108076;-60
2023/05/10 04:18:45;;;;;;;10.80;5.00;;;;;;;7.39;50.55;100801.88;111217;1210;98931;-61
2023/05/10 04:21:12;;;;;;;8.50;5.00;;;;;;;7.41;50.70;100800.05;111059;1206;138882;-61
2023/05/10 04:23:38;;;;;;;9.80;5.20;;;;;;;7.43;50.78;100796.44;111198;1211;99522;-60
2023/05/10 04:26:03;;;;;;;14.00;5.40;;;;;;;7.46;50.80;100795.64;111072;1206;138683;-60
2023/05/10 04:28:29;;;;;;;13.60;5.50;;;;;;;7.48;50.91;100797.52;111345;1212;98987;-61
2023/05/10 04:31:10;;;;;;;19.60;6.00;;;;;;;7.51;51.00;100801.36;111138;1206;99444;-60
2023/05/10 04:33:36;;;;;;;14.10;5.80;;;;;;;7.54;51.06;100800.92;111133;1212;138713;-61
2023/05/10 04:36:02;;;;;;;12.00;5.40;;;;;;;7.58;51.07;100803.30;111267;1210;99031;-60
2023/05/10 04:38:28;;;;;;;10.70;4.80;;;;;;;7.61;51.05;100804.27;111099;1206;138582;-61
2023/05/10 04:40:54;;;;;;;12.00;5.50;;;;;;;7.65;51.12;100804.33;111220;1206;97496;-61
2023/05/10 04:43:20;;;;;;;11.10;5.20;;;;;;;7.69;51.21;100803.52;111237;1206;99020;-62
2023/05/10 04:45:45;;;;;;;12.30;5.40;;;;;;;7.73;51.28;100799.48;111145;1206;138089;-61
2023/05/10 04:48:11;;;;;;;12.50;5.70;;;;;;;7.77;51.35;100801.31;111334;1206;99031;-61
2023/05/10 04:50:36;;;;;;;17.20;5.60;;;;;;;7.81;51.28;100801.34;111027;1206;137934;-60
2023/05/10 04:53:01;;;;;;;12.70;5.90;;;;;;;7.87;51.24;100803.66;111227;1211;99034;-60
2023/05/10 04:55:26;;;;;;;13.50;5.20;;;;;;;7.92;51.30;100806.17;111229;1206;98948;-60
2023/05/10 04:57:55;;;;;;;13.30;5.70;;;;;;;7.96;51.43;100806.58;111037;1206;137629;-60
2023/05/10 05:00:20;;;;;;;11.60;5.40;;;;;;;8.01;51.48;100805.54;111132;1211;98945;-60
2023/05/10 05:02:45;;;;;;;13.20;5.40;;;;;;;8.04;51.47;100804.02;111107;1212;138553;-62
2023/05/10 05:05:11;;;;;;;11.30;5.20;;;;;;;8.09;51.43;100806.02;111134;1206;98922;-61
2023/05/10 05:07:38;;;;;;;12.60;5.60;;;;;;;8.15;51.55;100808.84;111123;1210;139718;-61
2023/05/10 05:10:07;;;;;;;10.00;5.80;;;;;;;8.22;51.55;100811.15;111230;1206;98919;-61
2023/05/10 05:12:32;;;;;;;11.50;5.40;;;;;;;8.27;51.59;100809.73;111222;1212;98992;-61
2023/05/10 05:14:58;;;;;;;11.50;5.90;;;;;;;8.31;51.60;100813.70;111054;1206;139197;-60
2023/05/10 05:17:23;;;;;;;13.40;6.30;;;;;;;8.36;51.62;100813.05;111232;1212;99085;-62
2023/05/10 05:19:48;;;;;;;15.10;6.50;;;;;;;8.42;51.76;100813.38;111117;1210;138616;-61
2023/05/10 05:22:13;;;;;;;11.70;6.00;;;;;;;8.48;51.73;100814.08;111241;1210;98947;-61
2023/05/10 05:24:39;;;;;;;13.60;5.50;;;;;;;8.55;51.79;100813.49;111134;1212;99001;-61
2023/05/10 05:27:04;;;;;;;16.80;6.00;;;;;;;8.61;51.83;100816.13;111147;1206;139398;-61
2023/05/10 05:29:29;;;;;;;15.40;6.00;;;;;;;8.66;51.76;100810.63;111250;1206;100022;-61
2023/05/10 05:31:55;;;;;;;13.00;6.30;;;;;;;8.73;51.81;100814.13;110862;1209;138519;-61
2023/05/10 05:34:21;;;;;;;22.90;6.30;;;;;;;8.81;51.86;100812.83;111210;1212;98939;-62
2023/05/10 05:36:46;;;;;;;14.20;5.10;;;;;;;8.88;51.95;100814.56;111135;1206;99006;-60
2023/05/10 05:39:12;;;;;;;12.40;5.50;;;;;;;8.95;51.91;100814.31;111101;1212;139402;-61
2023/05/10 05:41:37;;;;;;;22.20;5.70;;;;;;;9.03;51.87;100813.52;111213;1212;99037;-61
2023/05/10 05:44:02;;;;;;;30.10;7.10;;;;;;;9.12;51.88;100811.23;111070;1210;138290;-61
2023/05/10 05:46:28;;;;;;;16.80;6.00;;;;;;;9.21;51.95;100809.30;111013;1211;99041;-61
2023/05/10 05:48:53;;;;;;;8.90;5.10;;;;;;;9.27;51.92;100809.11;110985;1206;98948;-61
2023/05/10 05:51:19;;;;;;;14.20;5.60;;;;;;;9.35;51.93;100809.50;110982;1212;138628;-61
2023/05/10 05:53:45;;;;;;;10.80;5.70;;;;;;;9.47;51.98;100806.25;111305;1206;99408;-60
2023/05/10 05:56:10;;;;;;;8.50;5.00;;;;;;;9.55;51.85;100807.73;110962;1206;139048;-61
2023/05/10 05:58:35;;;;;;;10.90;5.20;;;;;;;9.62;51.90;100804.27;111183;1206;99041;-61
2023/05/10 06:01:01;;;;;;;17.80;6.10;;;;;;;9.68;51.99;100805.09;111212;1206;98922;-61
2023/05/10 06:03:26;;;;;;;12.30;7.30;;;;;;;9.76;51.93;100802.29;110991;1206;138879;-61
2023/05/10 06:05:51;;;;;;;13.70;5.70;;;;;;;9.84;51.92;100804.51;111036;1206;99321;-61
2023/05/10 06:08:17;;;;;;;15.90;5.10;;;;;;;9.91;51.91;100805.83;110974;1206;139401;-61
2023/05/10 06:10:42;;;;;;;15.10;5.00;;;;;;;9.98;51.83;100805.20;111253;1206;98917;-62
2023/05/10 06:13:07;;;;;;;16.10;5.20;;;;;;;10.05;51.79;100806.36;111107;1206;97500;-61
2023/05/10 06:15:33;;;;;;;17.00;5.40;;;;;;;10.15;51.74;100804.03;111017;1206;138937;-61
2023/05/10 06:17:58;;;;;;;13.40;5.30;;;;;;;10.23;51.70;100805.89;111196;1205;98988;-60
2023/05/10 06:20:23;;;;;;;11.50;5.70;;;;;;;10.32;51.75;100803.21;111004;1212;138378;-62
2023/05/10 06:22:49;;;;;;;11.20;5.10;;;;;;;10.42;51.65;100800.44;111143;1206;98919;-61
2023/05/10 06:25:17;;;;;;;11.50;5.40;;;;;;;10.51;51.60;100803.64;110879;1214;99022;-61
2023/05/10 06:27:43;;;;;;;8.90;5.00;;;;;;;10.60;51.56;100798.29;111037;1206;139778;-61
2023/05/10 06:30:10;;;;;;;8.80;4.80;;;;;;;10.70;51.63;100795.52;110975;1212;99065;-61
2023/05/10 06:32:35;;;;;;;13.40;6.10;;;;;;;10.82;51.61;100793.60;111142;1206;139119;-59
2023/05/10 06:35:00;;;;;;;12.00;5.10;;;;;;;10.92;51.54;100794.96;110968;1206;99018;-59
2023/05/10 06:37:25;;;;;;;13.70;5.20;;;;;;;11.00;51.41;100793.58;111142;1212;99095;-60
2023/05/10 06:39:51;;;;;;;12.90;6.20;;;;;;;11.09;51.42;100791.19;111066;1212;138685;-59
2023/05/10 06:42:16;;;;;;;20.90;6.50;;;;;;;11.18;51.38;100789.39;111151;1206;100010;-60
2023/05/10 06:44:41;;;;;;;19.00;5.30;;;;;;;11.25;51.25;100793.02;111103;1211;140504;-60
2023/05/10 06:47:06;;;;;;;27.80;5.60;;;;;;;11.32;51.19;100790.55;111092;1206;99044;-60
2023/05/10 06:49:32;;;;;;;14.80;5.50;;;;;;;11.40;51.17;100789.86;110905;1206;140394;-60
2023/05/10 06:51:57;;;;;;;13.10;5.50;;;;;;;11.49;51.13;100791.40;111180;1212;100410;-60
2023/05/10 06:54:23;;;;;;;10.80;5.00;;;;;;;11.59;51.04;100788.25;111078;1206;98976;-59
2023/05/10 06:56:48;;;;;;;10.50;5.70;;;;;;;11.68;51.00;100792.66;111044;1206;138953;-59
2023/05/10 06:59:13;;;;;;;8.90;5.00;;;;;;;11.81;50.85;100787.84;111101;1206;99059;-59
2023/05/10 07:01:39;;;;;;;10.40;5.40;;;;;;;11.90;50.86;100790.10;111088;1206;138803;-60
2023/05/10 07:04:05;;;;;;;11.70;5.00;;;;;;;11.98;50.70;100790.45;111209;1206;99043;-60
2023/05/10 07:06:30;;;;;;;12.60;5.20;;;;;;;12.06;50.67;100792.21;111573;1206;99034;-60
2023/05/10 07:08:55;;;;;;;9.60;4.90;;;;;;;12.15;50.66;100787.86;110862;1206;138181;-60
2023/05/10 07:11:20;;;;;;;9.60;4.30;;;;;;;12.25;50.58;100785.41;111254;1212;98952;-60
2023/05/10 07:13:46;;;;;;;11.80;5.00;;;;;;;12.38;50.47;100784.59;111101;1206;138591;-61
2023/05/10 07:16:11;;;;;;;15.10;4.80;;;;;;;12.49;50.45;100780.98;111289;1211;100841;-60
2023/05/10 07:18:37;;;;;;;7.60;4.90;;;;;;;12.60;50.37;100773.27;111227;1212;99011;-60
2023/05/10 07:21:02;;;;;;;13.70;5.40;;;;;;;12.72;50.16;100774.98;111153;1206;139513;-60
2023/05/10 07:23:28;;;;;;;19.20;4.90;;;;;;;12.82;50.04;100775.24;111175;1206;100236;-60
2023/05/10 07:25:53;;;;;;;10.50;5.20;;;;;;;12.91;49.94;100779.41;110916;1206;139999;-60
2023/05/10 07:28:19;;;;;;;17.60;4.70;;;;;;;13.00;49.79;100771.60;111255;1206;98996;-61
2023/05/10 07:30:45;;;;;;;10.80;4.60;;;;;;;13.09;49.84;100770.77;111292;1206;99128;-60
2023/05/10 07:33:13;;;;;;;13.10;4.70;;;;;;;13.18;49.68;100767.78;110952;1206;139333;-60
2023/05/10 07:35:39;;;;;;;10.70;4.90;;;;;;;13.28;49.57;100768.52;111163;1211;99009;-61
2023/05/10 07:38:04;;;;;;;14.40;4.80;;;;;;;13.35;49.46;100767.44;111237;1206;139238;-61
2023/05/10 07:40:31;;;;;;;16.50;4.80;;;;;;;13.43;49.40;100770.61;111131;1206;114020;-61
2023/05/10 07:42:56;;;;;;;7.80;4.90;;;;;;;13.55;49.36;100769.77;111321;1216;97896;-61
2023/05/10 07:45:22;;;;;;;11.80;4.50;;;;;;;13.66;49.21;100767.20;111194;1206;138612;-60
2023/05/10 07:47:47;;;;;;;8.30;4.20;;;;;;;13.76;49.12;100769.55;111159;1211;98942;-59
2023/05/10 07:50:13;;;;;;;7.30;3.60;;;;;;;13.85;49.00;100767.59;111093;1205;138236;-61
2023/05/10 07:52:38;;;;;;;6.80;3.80;;;;;;;13.93;48.87;100764.43;111213;1206;99079;-61
2023/05/10 07:55:07;;;;;;;14.80;4.80;;;;;;;14.03;48.78;100764.98;111161;1210;98953;-60
2023/05/10 07:57:33;;;;;;;13.70;4.60;;;;;;;14.13;48.66;100773.05;111079;1206;140094;-60
2023/05/10 07:59:59;;;;;;;8.20;4.20;;;;;;;14.22;48.42;100770.21;111136;1206;98946;-60
2023/05/10 08:02:24;;;;;;;12.20;4.70;;;;;;;14.29;48.47;100767.64;111122;1206;137960;-60
2023/05/10 08:04:49;;;;;;;10.30;4.10;;;;;;;14.39;48.39;100767.45;111120;1210;98968;-60
2023/05/10 08:07:14;;;;;;;7.70;4.30;;;;;;;14.50;48.26;100764.34;111203;1211;98220;-61
2023/05/10 08:09:40;;;;;;;8.40;3.80;;;;;;;14.60;48.15;100764.61;111035;1206;138668;-59
2023/05/10 08:12:06;;;;;;;6.40;4.00;;;;;;;14.70;48.05;100760.83;110955;1206;99875;-60
2023/05/10 08:14:31;;;;;;;10.30;3.90;;;;;;;14.79;48.01;100760.64;111119;1206;139348;-60
2023/05/10 08:16:57;;;;;;;9.20;3.80;;;;;;;14.86;47.81;100755.01;111100;1206;112945;-60
2023/05/10 08:19:23;;;;;;;14.60;4.00;;;;;;;14.92;47.76;100751.02;110967;1206;97671;-59
2023/05/10 08:21:48;;;;;;;11.30;3.90;;;;;;;15.01;47.62;100744.43;110707;1210;138513;-60
2023/05/10 08:24:14;;;;;;;15.50;4.40;;;;;;;15.10;47.51;100749.45;110804;1206;99096;-60
2023/05/10 08:26:40;;;;;;;7.80;4.20;;;;;;;15.19;47.45;100751.03;110908;1206;139486;-60
2023/05/10 08:29:05;;;;;;;14.20;4.20;;;;;;;15.30;47.36;100752.88;111005;1206;98936;-60
2023/05/10 08:31:31;;;;;;;14.00;4.00;;;;;;;15.38;47.25;100754.54;110918;1206;139113;-60
2023/05/10 08:33:56;;;;;;;37.20;4.70;;;;;;;15.46;47.17;100753.16;110958;1206;99032;-60
2023/05/10 08:36:23;;;;;;;14.10;4.20;;;;;;;15.54;46.99;100750.17;111088;1206;98213;-60
2023/05/10 08:38:53;;;;;;;7.40;2.90;;;;;;;15.64;46.86;100749.33;110759;1207;138993;-60
2023/05/10 08:41:24;;;;;;;11.20;3.30;;;;;;;15.72;46.60;100748.84;111015;1205;99008;-60
2023/05/10 08:43:50;;;;;;;39.00;4.80;;;;;;;15.80;46.55;100747.04;110736;1206;138670;-60
2023/05/10 08:46:18;;;;;;;12.10;3.10;;;;;;;15.92;46.24;100750.80;110981;1206;99522;-61
2023/05/10 08:48:48;;;;;;;8.30;2.80;;;;;;;15.99;46.07;100752.66;111047;1211;99024;-60
2023/05/10 08:51:17;;;;;;;6.60;3.90;;;;;;;16.06;46.06;100742.38;110881;1205;139668;-60
2023/05/10 08:53:43;;;;;;;10.70;3.90;;;;;;;16.10;45.77;100740.60;111080;1211;99053;-63
2023/05/10 08:56:09;;;;;;;9.40;3.00;;;;;;;16.17;45.79;100742.48;110939;1206;138634;-60
2023/05/10 08:58:34;;;;;;;9.10;3.10;;;;;;;16.28;45.51;100737.84;111086;1205;99437;-61
2023/05/10 09:01:02;;;;;;;3.90;2.50;;;;;;;16.36;45.52;100737.30;110975;1211;98929;-61
2023/05/10 09:03:27;;;;;;;14.50;3.00;;;;;;;16.45;45.36;100732.55;110754;1211;138123;-60
2023/05/10 09:05:53;;;;;;;13.70;2.40;;;;;;;16.58;44.91;100735.48;110892;1210;100612;-60
2023/05/10 09:08:20;;;;;;;23.50;3.30;;;;;;;16.70;44.76;100737.00;111126;1205;140115;-61
2023/05/10 09:10:47;;;;;;;25.30;3.30;;;;;;;16.82;44.48;100735.88;111241;1206;99414;-61
2023/05/10 09:13:15;;;;;;;10.10;2.80;;;;;;;16.87;44.03;100730.46;111176;1209;100475;-61
2023/05/10 09:15:40;;;;;;;23.10;3.40;;;;;;;16.90;43.87;100725.55;111163;1211;139179;-60
2023/05/10 09:18:06;;;;;;;2.30;1.90;;;;;;;16.96;43.76;100725.37;111107;1205;98941;-60
2023/05/10 09:20:31;;;;;;;18.40;2.90;;;;;;;17.02;43.33;100721.11;111071;1205;139710;-61
2023/05/10 09:22:56;;;;;;;22.50;3.40;;;;;;;17.07;42.99;100721.27;111009;1206;98947;-61
2023/05/10 09:25:22;;;;;;;5.70;1.80;;;;;;;17.14;42.69;100726.81;111161;1206;99215;-61
2023/05/10 09:27:48;;;;;;;20.80;2.90;;;;;;;17.18;42.48;100727.38;111038;1210;138348;-61
2023/05/10 09:30:29;;;;;;;10.60;2.40;;;;;;;17.24;42.36;100718.50;111149;1206;98907;-61
2023/05/10 09:32:55;;;;;;;;;;;;;;;17.30;41.92;100718.99;111111;1206;138420;-61
2023/05/10 09:35:23;;;;;;;11.20;2.10;;;;;;;17.35;41.63;100723.52;110968;1211;99047;-61
2023/05/10 09:37:51;;;;;;;11.10;2.40;;;;;;;17.42;41.48;100723.75;110786;1205;140615;-61
2023/05/10 09:40:19;;;;;;;4.00;1.50;;;;;;;17.50;41.03;100720.41;110909;1206;98935;-61
2023/05/10 09:43:02;;;;;;;11.70;2.20;;;;;;;17.59;40.44;100722.48;111087;1206;98915;-61
2023/05/10 09:45:30;;;;;;;16.10;3.30;;;;;;;17.68;40.38;100720.28;110811;1215;138394;-61
2023/05/10 09:47:56;;;;;;;17.10;2.80;;;;;;;17.75;40.18;100724.45;111081;1205;99069;-59
2023/05/10 09:50:22;;;;;;;3.20;1.90;;;;;;;17.81;40.06;100721.31;110820;1211;139089;-59
2023/05/10 09:52:54;;;;;;;8.10;2.50;;;;;;;17.86;39.83;100716.84;111158;1205;99039;-59
2023/05/10 09:55:39;;;;;;;9.00;2.70;;;;;;;17.92;39.65;100720.89;111049;1211;99765;-59
2023/05/10 09:58:06;;;;;;;9.10;2.00;;;;;;;18.00;39.79;100720.67;111167;1211;99000;-59
2023/05/10 10:00:37;;;;;;;13.30;2.30;;;;;;;18.07;39.32;100720.17;111005;1211;98922;-60
2023/05/10 10:03:03;;;;;;;6.30;2.00;;;;;;;18.10;39.19;100709.63;110865;1205;139116;-59
2023/05/10 10:05:29;;;;;;;6.90;2.10;;;;;;;18.09;38.88;100712.77;111082;1206;98945;-60
2023/05/10 10:07:57;;;;;;;12.90;2.30;;;;;;;18.11;38.72;100716.77;110972;1211;138379;-60
2023/05/10 10:10:23;;;;;;;8.30;1.90;;;;;;;18.20;38.67;100713.41;111175;1210;98976;-60
2023/05/10 10:12:48;;;;;;;17.60;2.60;;;;;;;18.26;38.55;100709.27;111345;1206;98918;-60
2023/05/10 10:15:14;;;;;;;12.20;2.80;;;;;;;18.36;38.49;100700.80;111097;1206;139432;-61
2023/05/10 10:17:41;;;;;;;8.90;2.30;;;;;;;18.41;38.33;100700.91;111210;1209;98954;-60
2023/05/10 10:20:08;;;;;;;3.40;2.20;;;;;;;18.47;38.27;100701.90;111034;1205;138887;-60
2023/05/10 10:22:33;;;;;;;5.60;2.50;;;;;;;18.52;38.17;100697.60;111396;1206;98921;-60
2023/05/10 10:25:00;;;;;;;9.20;2.30;;;;;;;18.58;38.13;100692.95;111399;1210;102552;-59
2023/05/10 10:27:41;;;;;;;8.90;2.10;;;;;;;18.66;37.89;100696.73;110998;1206;138619;-60
2023/05/10 10:30:21;;;;;;;;;;;;;;;18.77;37.84;100694.45;111102;1211;98878;-61
2023/05/10 10:33:29;;;;;;;2.30;1.60;;;;;;;18.83;37.53;100688.87;111102;1205;126572;-60
2023/05/10 10:36:01;;;;;;;18.10;2.60;;;;;;;18.95;37.30;100695.77;111086;1211;104384;-60
2023/05/10 10:38:59;;;;;;;7.80;2.10;;;;;;;19.07;37.13;100688.78;110916;1205;139047;-61
2023/05/10 10:41:36;;;;;;;7.20;1.60;;;;;;;19.18;37.06;100692.52;111014;1211;110260;-60
2023/05/10 10:44:26;;;;;;;18.70;2.70;;;;;;;19.27;37.01;100685.84;110947;1206;141807;-61
2023/05/10 10:47:24;;;;;;;9.30;1.90;;;;;;;19.41;36.94;100684.13;111134;1206;98943;-61
2023/05/10 10:50:08;;;;;;;11.00;2.30;;;;;;;19.51;36.77;100685.70;110767;1206;138240;-61
2023/05/10 10:52:35;;;;;;;9.80;2.30;;;;;;;19.58;36.52;100685.14;111001;1206;97688;-60
2023/05/10 10:55:08;;;;;;;57.30;5.40;;;;;;;19.68;36.42;100678.91;111002;1208;98936;-60
2023/05/10 10:57:40;;;;;;;27.30;2.90;;;;;;;19.80;36.36;100668.38;110927;1205;138295;-60
2023/05/10 11:00:20;;;;;;;18.40;2.40;;;;;;;19.91;36.31;100668.31;110892;1211;99047;-60
2023/05/10 11:03:11;;;;;;;7.10;2.10;;;;;;;19.99;36.11;100669.64;111381;1205;138207;-60
2023/05/10 11:05:43;;;;;;;13.10;2.70;;;;;;;20.04;35.86;100668.52;111105;1210;99127;-60
2023/05/10 11:08:28;;;;;;;10.50;2.60;;;;;;;20.13;35.95;100671.27;110828;1211;138510;-60
2023/05/10 11:11:04;;;;;;;2.30;1.80;;;;;;;20.23;35.77;100672.93;111092;1207;98954;-60
2023/05/10 11:13:31;;;;;;;11.70;2.30;;;;;;;20.28;35.52;100670.71;111034;1206;98925;-60
2023/05/10 11:15:58;;;;;;;5.90;1.40;;;;;;;20.28;35.32;100656.73;110925;1206;138732;-60